createdAt,value
2022-07-29T00:02:27.170Z,46.10
2022-07-29T00:04:54.295Z,45.21
2022-07-29T00:07:21.407Z,44.93
2022-07-29T00:09:52.102Z,44.43
2022-07-29T00:12:25.431Z,44.55
2022-07-29T00:14:54.764Z,45.81
2022-07-29T00:17:21.793Z,45.32
2022-07-29T00:19:48.771Z,46.40
2022-07-29T00:22:15.788Z,45.37
2022-07-29T00:24:42.709Z,45.71
2022-07-29T00:27:09.633Z,44.20
2022-07-29T00:29:36.535Z,44.88
2022-07-29T00:32:04.113Z,45.23
2022-07-29T00:34:51.326Z,44.30
2022-07-29T00:37:18.337Z,44.24
2022-07-29T00:39:45.302Z,43.97
2022-07-29T00:42:12.291Z,43.73
2022-07-29T00:44:40.683Z,43.75
2022-07-29T00:47:08.473Z,45.02
2022-07-29T00:49:35.868Z,45.58
2022-07-29T00:52:06.705Z,45.32
2022-07-29T00:54:35.262Z,45.45
2022-07-29T00:57:04.507Z,44.23
2022-07-29T00:59:35.199Z,44.32
2022-07-29T01:02:03.902Z,43.70
2022-07-29T01:04:32.316Z,44.59
2022-07-29T01:06:59.662Z,44.81
2022-07-29T01:09:34.315Z,45.21
2022-07-29T01:12:15.206Z,46.15
2022-07-29T01:14:42.548Z,46.33
2022-07-29T01:17:33.225Z,45.77
2022-07-29T01:20:14.120Z,46.38
2022-07-29T01:23:21.730Z,47.02
2022-07-29T01:26:12.765Z,45.93
2022-07-29T01:28:47.667Z,45.56
2022-07-29T01:31:58.686Z,44.67
2022-07-29T01:34:45.244Z,45.87
2022-07-29T01:37:27.496Z,44.17
2022-07-29T01:39:57.336Z,45.58
2022-07-29T01:42:44.290Z,44.92
2022-07-29T01:45:16.703Z,45.09
2022-07-29T01:47:50.607Z,44.42
2022-07-29T01:50:19.025Z,44.21
2022-07-29T01:53:00.648Z,44.21
2022-07-29T01:55:31.179Z,45.80
2022-07-29T01:57:59.014Z,45.47
2022-07-29T02:00:26.793Z,46.10
2022-07-29T02:02:54.326Z,47.20
2022-07-29T02:05:23.421Z,47.31
2022-07-29T02:07:51.702Z,47.72
2022-07-29T02:10:21.401Z,47.50
2022-07-29T02:12:55.591Z,46.32
2022-07-29T02:15:24.269Z,45.73
2022-07-29T02:17:58.150Z,44.29
2022-07-29T02:20:26.773Z,44.21
2022-07-29T02:22:54.270Z,44.87
2022-07-29T02:25:22.630Z,45.27
2022-07-29T02:27:52.145Z,45.35
2022-07-29T02:30:19.703Z,46.67
2022-07-29T02:32:48.058Z,46.19
2022-07-29T02:35:16.618Z,45.27
2022-07-29T02:37:44.867Z,44.65
2022-07-29T02:40:16.730Z,45.72
2022-07-29T02:42:45.525Z,46.47
2022-07-29T02:45:12.468Z,46.23
2022-07-29T02:47:44.733Z,46.72
2022-07-29T02:50:22.802Z,45.03
2022-07-29T02:52:56.541Z,45.07
2022-07-29T02:55:35.816Z,45.96
2022-07-29T02:58:07.357Z,45.52
2022-07-29T03:00:38.256Z,45.32
2022-07-29T03:03:09.070Z,47.07
2022-07-29T03:05:36.592Z,48.81
2022-07-29T03:08:07.243Z,51.22
2022-07-29T03:10:34.650Z,49.26
2022-07-29T03:13:01.997Z,46.33
2022-07-29T03:15:29.120Z,46.06
2022-07-29T03:17:56.801Z,47.76
2022-07-29T03:20:23.876Z,46.02
2022-07-29T03:22:51.137Z,46.26
2022-07-29T03:25:20.237Z,46.55
2022-07-29T03:27:48.171Z,46.24
2022-07-29T03:30:21.895Z,45.03
2022-07-29T03:32:50.029Z,44.81
2022-07-29T03:35:20.576Z,48.43
2022-07-29T03:37:47.704Z,48.67
2022-07-29T03:40:25.706Z,47.50
2022-07-29T03:42:53.307Z,46.63
2022-07-29T03:45:20.438Z,46.76
2022-07-29T03:47:52.988Z,46.97
2022-07-29T03:50:23.315Z,46.97
2022-07-29T03:52:50.718Z,45.85
2022-07-29T03:55:17.931Z,46.98
2022-07-29T03:57:45.905Z,47.52
2022-07-29T04:02:40.600Z,53.34
2022-07-29T04:05:13.492Z,53.10
2022-07-29T04:07:41.159Z,50.22
2022-07-29T04:10:09.043Z,46.46
2022-07-29T04:12:36.363Z,48.21
2022-07-29T04:15:05.115Z,47.55
2022-07-29T04:17:32.237Z,46.78
2022-07-29T04:19:59.142Z,45.66
2022-07-29T04:22:26.117Z,44.24
2022-07-29T04:24:54.397Z,44.20
2022-07-29T04:27:21.400Z,43.16
2022-07-29T04:29:55.882Z,42.16
2022-07-29T04:32:25.158Z,40.89
2022-07-29T04:34:52.435Z,40.84
2022-07-29T04:37:19.717Z,40.73
2022-07-29T04:39:46.643Z,40.57
2022-07-29T04:42:13.560Z,43.86
2022-07-29T04:44:43.147Z,41.16
2022-07-29T04:47:10.543Z,41.77
2022-07-29T04:49:40.551Z,44.47
2022-07-29T04:52:07.946Z,43.20
2022-07-29T04:54:34.981Z,41.12
2022-07-29T04:57:01.927Z,44.29
2022-07-29T04:59:28.899Z,42.06
2022-07-29T05:01:55.850Z,43.04
2022-07-29T05:04:22.891Z,41.92
2022-07-29T05:06:50.066Z,38.04
2022-07-29T05:09:17.119Z,35.12
2022-07-29T05:11:44.077Z,33.02
2022-07-29T05:14:11.067Z,31.32
2022-07-29T05:16:37.991Z,30.52
2022-07-29T05:19:04.925Z,31.13
2022-07-29T05:21:31.834Z,35.69
2022-07-29T05:23:58.728Z,36.94
2022-07-29T05:26:25.719Z,38.08
2022-07-29T05:28:52.724Z,34.86
2022-07-29T05:31:19.761Z,35.35
2022-07-29T05:33:46.883Z,37.72
2022-07-29T05:36:13.818Z,39.58
2022-07-29T05:38:40.732Z,39.94
2022-07-29T05:41:07.934Z,38.53
2022-07-29T05:43:34.848Z,37.26
2022-07-29T05:46:01.950Z,35.68
2022-07-29T05:48:28.965Z,39.18
2022-07-29T05:50:56.082Z,37.39
2022-07-29T05:53:23.530Z,36.85
2022-07-29T05:55:53.054Z,36.89
2022-07-29T05:58:20.076Z,37.63
2022-07-29T06:00:47.121Z,37.96
2022-07-29T06:03:14.190Z,37.72
2022-07-29T06:05:41.250Z,37.12
2022-07-29T06:08:08.708Z,39.88
2022-07-29T06:10:39.321Z,41.25
2022-07-29T06:13:06.485Z,38.71
2022-07-29T06:15:33.796Z,38.82
2022-07-29T06:18:01.568Z,37.42
2022-07-29T06:20:32.673Z,36.50
2022-07-29T06:23:00.456Z,37.40
2022-07-29T06:25:36.941Z,37.90
2022-07-29T06:28:04.458Z,38.07
2022-07-29T06:30:31.479Z,36.88
2022-07-29T06:32:58.438Z,35.39
2022-07-29T06:35:38.867Z,35.80
2022-07-29T06:38:30.682Z,37.58
2022-07-29T06:41:02.231Z,38.76
2022-07-29T06:43:32.715Z,36.86
2022-07-29T06:46:02.517Z,38.39
2022-07-29T06:48:30.139Z,36.15
2022-07-29T06:50:57.115Z,34.09
2022-07-29T06:53:24.481Z,35.34
2022-07-29T06:55:51.985Z,33.94
2022-07-29T06:58:21.476Z,33.32
2022-07-29T07:00:49.304Z,31.91
2022-07-29T07:03:17.539Z,33.07
2022-07-29T07:05:45.370Z,32.41
2022-07-29T07:08:12.986Z,31.68
2022-07-29T07:10:40.354Z,30.75
2022-07-29T07:13:07.314Z,32.07
2022-07-29T07:15:39.693Z,31.04
2022-07-29T07:18:16.640Z,31.36
2022-07-29T07:20:44.339Z,32.90
2022-07-29T07:23:12.129Z,30.03
2022-07-29T07:25:39.057Z,30.15
2022-07-29T07:28:05.995Z,29.33
2022-07-29T07:30:33.317Z,29.58
2022-07-29T07:33:01.225Z,27.13
2022-07-29T07:35:28.931Z,28.31
2022-07-29T07:37:57.035Z,28.82
2022-07-29T07:40:24.311Z,30.04
2022-07-29T07:42:51.386Z,28.18
2022-07-29T07:45:19.590Z,27.10
2022-07-29T07:47:48.239Z,25.76
2022-07-29T07:50:18.720Z,25.49
2022-07-29T07:52:58.942Z,27.10
2022-07-29T07:55:26.995Z,26.32
2022-07-29T07:57:54.830Z,23.85
2022-07-29T08:00:23.020Z,24.27
2022-07-29T08:02:51.450Z,25.31
2022-07-29T08:05:19.259Z,24.77
2022-07-29T08:07:47.292Z,26.38
2022-07-29T08:10:39.232Z,26.04
2022-07-29T08:13:10.177Z,25.95
2022-07-29T08:15:37.279Z,26.59
2022-07-29T08:18:08.477Z,27.13
2022-07-29T08:20:36.856Z,25.97
2022-07-29T08:23:07.754Z,25.32
2022-07-29T08:25:34.753Z,25.34
2022-07-29T08:28:06.002Z,25.20
2022-07-29T08:30:33.525Z,25.21
2022-07-29T08:33:01.009Z,22.69
2022-07-29T08:35:32.121Z,22.84
2022-07-29T08:38:14.229Z,25.23
2022-07-29T08:40:41.184Z,26.35
2022-07-29T08:43:09.828Z,27.13
2022-07-29T08:45:50.193Z,26.76
2022-07-29T08:48:19.295Z,26.32
2022-07-29T08:50:47.330Z,26.38
2022-07-29T08:53:17.759Z,27.48
2022-07-29T08:55:46.748Z,25.32
2022-07-29T08:58:15.815Z,25.18
2022-07-29T09:00:45.074Z,25.77
2022-07-29T09:03:16.386Z,26.26
2022-07-29T09:05:47.852Z,26.16
2022-07-29T09:08:16.177Z,24.40
2022-07-29T09:10:43.609Z,25.01
2022-07-29T09:13:10.624Z,23.86
2022-07-29T09:15:37.625Z,25.51
2022-07-29T09:18:04.573Z,24.33
2022-07-29T09:20:51.427Z,24.31
2022-07-29T09:23:23.184Z,22.59
2022-07-29T09:25:51.417Z,22.75
2022-07-29T09:28:19.179Z,23.37
2022-07-29T09:30:57.479Z,24.17
2022-07-29T09:33:25.320Z,23.79
2022-07-29T09:36:07.134Z,23.26
2022-07-29T09:38:34.903Z,24.05
2022-07-29T09:41:05.985Z,23.53
2022-07-29T09:44:25.918Z,23.33
2022-07-29T09:47:08.231Z,23.52
2022-07-29T09:49:37.277Z,23.92
2022-07-29T09:52:09.771Z,24.02
2022-07-29T09:54:40.212Z,23.10
2022-07-29T09:57:13.737Z,22.09
2022-07-29T09:59:49.943Z,22.51
2022-07-29T10:02:23.558Z,21.53
2022-07-29T10:04:51.158Z,20.89
2022-07-29T10:07:18.097Z,23.22
2022-07-29T10:09:55.522Z,22.69
2022-07-29T10:12:23.002Z,23.42
2022-07-29T10:14:50.356Z,22.29
2022-07-29T10:17:24.577Z,23.00
2022-07-29T10:19:51.666Z,23.88
2022-07-29T10:22:36.871Z,22.96
2022-07-29T10:25:05.976Z,22.14
2022-07-29T10:27:33.049Z,21.37
2022-07-29T10:30:00.024Z,23.31
2022-07-29T10:32:43.686Z,21.84
2022-07-29T10:35:26.722Z,20.76
2022-07-29T10:38:21.606Z,21.26
2022-07-29T10:41:23.650Z,21.68
2022-07-29T10:43:52.195Z,20.87
2022-07-29T10:46:19.692Z,22.29
2022-07-29T10:49:06.289Z,21.43
2022-07-29T10:52:06.417Z,22.48
2022-07-29T10:54:48.717Z,21.86
2022-07-29T10:57:53.303Z,21.91
2022-07-29T11:00:29.381Z,21.89
2022-07-29T11:02:59.348Z,22.59
2022-07-29T11:05:32.310Z,23.37
2022-07-29T11:08:19.647Z,22.22
2022-07-29T11:10:48.653Z,22.02
2022-07-29T11:13:46.496Z,21.13
2022-07-29T11:16:16.157Z,21.44
2022-07-29T11:19:14.590Z,21.37
2022-07-29T11:21:54.045Z,22.28
2022-07-29T11:24:35.741Z,20.89
2022-07-29T11:27:18.229Z,20.62
2022-07-29T11:29:55.708Z,20.47
2022-07-29T11:32:29.501Z,20.63
2022-07-29T11:35:36.865Z,21.47
2022-07-29T11:38:23.783Z,21.55
2022-07-29T11:41:22.246Z,20.48
2022-07-29T11:43:55.334Z,21.62
2022-07-29T11:46:48.494Z,21.77
2022-07-29T11:49:22.126Z,22.26
2022-07-29T11:52:03.026Z,22.79
2022-07-29T11:54:57.487Z,22.37
2022-07-29T11:57:36.396Z,23.83
2022-07-29T12:00:09.492Z,23.73
2022-07-29T12:02:43.267Z,23.81
2022-07-29T12:05:14.527Z,23.73
2022-07-29T12:07:47.274Z,23.09
2022-07-29T12:10:19.434Z,23.76
2022-07-29T12:12:54.660Z,23.09
2022-07-29T12:15:22.565Z,22.94
2022-07-29T12:17:50.501Z,23.43
2022-07-29T12:20:28.065Z,24.24
2022-07-29T12:22:56.874Z,21.87
2022-07-29T12:25:33.734Z,22.80
2022-07-29T12:28:03.690Z,23.25
2022-07-29T12:30:41.871Z,23.84
2022-07-29T12:33:29.387Z,24.04
2022-07-29T12:36:06.977Z,23.34
2022-07-29T12:38:36.020Z,22.64
2022-07-29T12:41:04.460Z,22.59
2022-07-29T12:43:31.902Z,23.97
2022-07-29T12:45:59.032Z,22.35
2022-07-29T12:48:39.279Z,22.25
2022-07-29T12:51:07.909Z,22.36
2022-07-29T12:53:36.034Z,21.97
2022-07-29T12:56:20.622Z,21.56
2022-07-29T12:58:53.479Z,21.30
2022-07-29T13:01:21.276Z,20.76
2022-07-29T13:04:01.367Z,19.94
2022-07-29T13:06:45.961Z,21.16
2022-07-29T13:09:15.484Z,21.35
2022-07-29T13:11:48.420Z,21.63
2022-07-29T13:14:39.753Z,21.09
2022-07-29T13:17:14.723Z,22.13
2022-07-29T13:19:46.684Z,21.54
2022-07-29T13:22:20.734Z,20.51
2022-07-29T13:24:54.918Z,21.05
2022-07-29T13:27:24.738Z,19.57
2022-07-29T13:29:57.610Z,19.94
2022-07-29T13:32:28.630Z,20.88
2022-07-29T13:35:01.675Z,20.97
2022-07-29T13:37:35.292Z,20.31
2022-07-29T13:40:04.463Z,19.70
2022-07-29T13:42:32.868Z,20.01
2022-07-29T13:45:00.503Z,19.71
2022-07-29T13:47:32.142Z,19.38
2022-07-29T13:50:08.242Z,18.33
2022-07-29T13:52:35.744Z,18.29
2022-07-29T13:55:03.684Z,17.17
2022-07-29T13:57:31.061Z,18.60
2022-07-29T13:59:58.490Z,18.69
2022-07-29T14:02:26.163Z,20.57
2022-07-29T14:04:54.883Z,20.88
2022-07-29T14:07:22.274Z,20.70
2022-07-29T14:09:49.273Z,20.09
2022-07-29T14:12:16.230Z,19.64
2022-07-29T14:14:43.291Z,19.59
2022-07-29T14:17:10.518Z,19.79
2022-07-29T14:19:39.380Z,19.94
2022-07-29T14:22:07.600Z,19.28
2022-07-29T14:24:37.123Z,19.17
2022-07-29T14:27:07.398Z,18.97
2022-07-29T14:29:37.789Z,19.53
2022-07-29T14:32:10.321Z,19.69
2022-07-29T14:34:38.352Z,20.35
2022-07-29T14:37:06.854Z,20.48
2022-07-29T14:39:39.320Z,21.03
2022-07-29T14:42:09.844Z,21.29
2022-07-29T14:45:01.555Z,20.70
2022-07-29T14:47:28.512Z,21.93
2022-07-29T14:49:55.782Z,21.42
2022-07-29T14:52:22.729Z,20.82
2022-07-29T14:54:49.670Z,20.97
2022-07-29T14:57:17.569Z,20.56
2022-07-29T14:59:44.518Z,19.64
2022-07-29T15:02:11.578Z,20.57
2022-07-29T15:04:40.510Z,21.72
2022-07-29T15:07:07.493Z,21.36
2022-07-29T15:09:36.335Z,21.63
2022-07-29T15:12:07.988Z,21.47
2022-07-29T15:14:34.942Z,21.58
2022-07-29T15:17:02.009Z,21.60
2022-07-29T15:19:31.722Z,21.38
2022-07-29T15:21:59.713Z,21.62
2022-07-29T15:24:27.259Z,21.19
2022-07-29T15:26:54.779Z,21.85
2022-07-29T15:29:21.725Z,20.87
2022-07-29T15:31:48.723Z,21.05
2022-07-29T15:34:15.707Z,22.16
2022-07-29T15:36:52.094Z,22.90
2022-07-29T15:39:20.647Z,21.98
2022-07-29T15:41:47.873Z,21.25
2022-07-29T15:44:14.848Z,20.95
2022-07-29T15:47:01.264Z,21.05
2022-07-29T15:49:46.352Z,20.68
2022-07-29T15:52:14.003Z,20.90
2022-07-29T15:54:44.058Z,21.06
2022-07-29T15:57:10.956Z,20.68
2022-07-29T15:59:37.892Z,19.92
2022-07-29T16:02:05.442Z,20.09
2022-07-29T16:04:32.760Z,20.78
2022-07-29T16:07:00.181Z,21.57
2022-07-29T16:09:27.997Z,20.91
2022-07-29T16:11:56.395Z,21.19
2022-07-29T16:14:23.411Z,21.65
2022-07-29T16:16:50.490Z,21.29
2022-07-29T16:19:17.523Z,21.55
2022-07-29T16:21:44.464Z,21.01
2022-07-29T16:24:11.426Z,20.73
2022-07-29T16:26:38.348Z,21.55
2022-07-29T16:29:05.670Z,21.48
2022-07-29T16:31:32.691Z,21.68
2022-07-29T16:34:00.950Z,22.43
2022-07-29T16:36:27.902Z,21.96
2022-07-29T16:38:54.867Z,20.43
2022-07-29T16:41:21.792Z,21.14
2022-07-29T16:43:48.763Z,20.94
2022-07-29T16:46:18.952Z,20.43
2022-07-29T16:48:46.566Z,20.07
2022-07-29T16:51:14.398Z,20.06
2022-07-29T16:53:41.958Z,19.77
2022-07-29T16:56:12.669Z,20.31
2022-07-29T16:58:43.606Z,20.35
2022-07-29T17:01:11.197Z,19.82
2022-07-29T17:04:00.203Z,18.95
2022-07-29T17:06:29.554Z,19.32
2022-07-29T17:08:57.193Z,19.45
2022-07-29T17:11:52.942Z,19.42
2022-07-29T17:14:11.538Z,19.25
2022-07-29T17:16:38.576Z,19.93
2022-07-29T17:19:05.652Z,19.74
2022-07-29T17:21:32.583Z,19.48
2022-07-29T17:23:59.667Z,20.17
2022-07-29T17:26:28.091Z,19.95
2022-07-29T17:28:55.794Z,19.74
2022-07-29T17:31:23.627Z,19.98
2022-07-29T17:33:50.694Z,20.00
2022-07-29T17:36:29.751Z,20.05
2022-07-29T17:39:05.051Z,21.10
2022-07-29T17:41:31.964Z,20.76
2022-07-29T17:43:59.133Z,21.49
2022-07-29T17:46:27.543Z,21.81
2022-07-29T17:48:56.079Z,21.38
2022-07-29T17:51:24.118Z,21.15
2022-07-29T17:53:51.382Z,21.39
2022-07-29T17:56:18.502Z,21.66
2022-07-29T17:58:47.549Z,22.30
2022-07-29T18:01:15.250Z,22.57
2022-07-29T18:03:43.083Z,22.63
2022-07-29T18:06:13.077Z,22.24
2022-07-29T18:08:40.273Z,22.42
2022-07-29T18:11:07.266Z,21.42
2022-07-29T18:13:34.298Z,21.22
2022-07-29T18:16:01.342Z,21.58
2022-07-29T18:18:28.699Z,22.54
2022-07-29T18:20:55.928Z,23.48
2022-07-29T18:23:22.920Z,24.26
2022-07-29T18:25:49.885Z,24.73
2022-07-29T18:28:16.886Z,25.44
2022-07-29T18:30:45.173Z,24.81
2022-07-29T18:33:21.385Z,23.76
2022-07-29T18:35:51.432Z,24.67
2022-07-29T18:38:18.416Z,25.02
2022-07-29T18:40:46.179Z,25.06
2022-07-29T18:43:13.826Z,25.31
2022-07-29T18:45:42.478Z,25.78
2022-07-29T18:48:13.004Z,24.85
2022-07-29T18:50:41.798Z,25.99
2022-07-29T18:53:08.859Z,26.07
2022-07-29T18:55:35.784Z,26.47
2022-07-29T18:58:03.367Z,27.39
2022-07-29T19:00:30.742Z,27.99
2022-07-29T19:02:57.874Z,28.75
2022-07-29T19:05:25.334Z,28.12
2022-07-29T19:07:52.384Z,30.22
2022-07-29T19:10:19.301Z,31.98
2022-07-29T19:12:46.227Z,31.14
2022-07-29T19:15:19.902Z,31.32
2022-07-29T19:17:48.164Z,32.31
2022-07-29T19:20:15.797Z,33.56
2022-07-29T19:22:42.746Z,34.51
2022-07-29T19:25:10.245Z,33.14
2022-07-29T19:27:37.278Z,30.82
2022-07-29T19:30:06.609Z,30.82
2022-07-29T19:32:33.651Z,31.66
2022-07-29T19:35:19.025Z,32.04
2022-07-29T19:37:45.951Z,32.71
2022-07-29T19:40:13.346Z,33.26
2022-07-29T19:42:40.344Z,31.66
2022-07-29T19:45:07.709Z,32.27
2022-07-29T19:47:34.677Z,31.65
2022-07-29T19:50:02.030Z,31.24
2022-07-29T19:52:29.004Z,32.01
2022-07-29T19:54:55.968Z,32.50
2022-07-29T19:57:23.048Z,33.27
2022-07-29T19:59:51.238Z,37.28
2022-07-29T20:02:18.476Z,39.60
2022-07-29T20:04:45.562Z,40.81
2022-07-29T20:07:13.722Z,42.54
2022-07-29T20:09:41.135Z,44.35
2022-07-29T20:12:11.532Z,44.40
2022-07-29T20:14:38.508Z,44.75
2022-07-29T20:17:05.968Z,46.10
2022-07-29T20:19:33.428Z,45.06
2022-07-29T20:22:00.799Z,44.00
2022-07-29T20:24:27.712Z,42.65
2022-07-29T20:26:54.678Z,39.91
2022-07-29T20:29:21.969Z,40.84
2022-07-29T20:31:53.497Z,43.89
2022-07-29T20:34:23.695Z,44.53
2022-07-29T20:36:50.738Z,45.44
2022-07-29T20:39:17.671Z,43.17
2022-07-29T20:41:44.755Z,41.14
2022-07-29T20:44:11.742Z,39.38
2022-07-29T20:46:39.569Z,40.83
2022-07-29T20:49:06.914Z,41.17
2022-07-29T20:51:43.949Z,41.98
2022-07-29T20:54:13.360Z,38.93
2022-07-29T20:56:41.561Z,37.91
2022-07-29T20:59:09.201Z,36.33
2022-07-29T21:01:36.370Z,34.83
2022-07-29T21:04:03.702Z,35.87
2022-07-29T21:06:30.841Z,35.29
2022-07-29T21:08:59.792Z,34.96
2022-07-29T21:11:43.148Z,35.77
2022-07-29T21:14:34.994Z,35.91
2022-07-29T21:17:02.403Z,36.25
2022-07-29T21:19:29.597Z,36.09
2022-07-29T21:21:56.509Z,36.00
2022-07-29T21:24:23.459Z,36.70
2022-07-29T21:27:11.032Z,36.01
2022-07-29T21:29:37.146Z,36.07
2022-07-29T21:32:04.381Z,34.58
2022-07-29T21:34:31.404Z,35.97
2022-07-29T21:36:58.370Z,36.72
2022-07-29T21:39:25.316Z,36.14
2022-07-29T21:41:52.226Z,34.19
2022-07-29T21:44:21.177Z,33.08
2022-07-29T21:46:48.417Z,34.78
2022-07-29T21:49:15.407Z,35.81
2022-07-29T21:51:42.473Z,37.59
2022-07-29T21:54:09.442Z,36.03
2022-07-29T21:56:37.143Z,36.87
2022-07-29T21:59:04.120Z,34.94
2022-07-29T22:01:39.383Z,35.63
2022-07-29T22:04:06.869Z,35.96
2022-07-29T22:06:34.743Z,36.86
2022-07-29T22:09:01.649Z,37.17
2022-07-29T22:11:28.811Z,36.94
2022-07-29T22:13:55.774Z,37.49
2022-07-29T22:16:22.782Z,37.35
2022-07-29T22:18:49.752Z,38.24
2022-07-29T22:21:16.665Z,38.48
2022-07-29T22:23:43.774Z,37.63
2022-07-29T22:26:10.707Z,37.26
2022-07-29T22:28:37.702Z,37.42
2022-07-29T22:31:05.173Z,37.56
2022-07-29T22:33:32.133Z,36.83
2022-07-29T22:35:59.064Z,37.38
2022-07-29T22:38:25.994Z,37.01
2022-07-29T22:40:52.952Z,38.03
2022-07-29T22:43:20.057Z,38.17
2022-07-29T22:45:47.230Z,37.29
2022-07-29T22:48:14.270Z,37.05
2022-07-29T22:50:41.904Z,37.26
2022-07-29T22:53:08.839Z,38.44
2022-07-29T22:55:35.764Z,37.19
2022-07-29T22:58:02.716Z,37.34
2022-07-29T23:00:29.744Z,36.95
2022-07-29T23:02:56.631Z,37.60
2022-07-29T23:05:23.630Z,36.96
2022-07-29T23:07:50.694Z,37.91
2022-07-29T23:10:17.600Z,39.33
2022-07-29T23:12:44.544Z,40.65
2022-07-29T23:15:11.616Z,40.24
2022-07-29T23:17:38.528Z,37.89
2022-07-29T23:20:09.912Z,38.58
2022-07-29T23:22:37.014Z,38.68
2022-07-29T23:25:05.098Z,39.92
2022-07-29T23:27:32.268Z,38.47
2022-07-29T23:29:59.350Z,38.11
2022-07-29T23:32:26.272Z,37.88
2022-07-29T23:34:53.221Z,38.74
2022-07-29T23:37:20.181Z,36.98
2022-07-29T23:39:47.088Z,38.34
2022-07-29T23:42:14.025Z,39.23
2022-07-29T23:44:40.983Z,38.36
2022-07-29T23:47:07.917Z,39.71
2022-07-29T23:49:34.972Z,39.02
2022-07-29T23:52:02.004Z,39.48
2022-07-29T23:54:28.921Z,39.13
2022-07-29T23:56:58.040Z,38.12
2022-07-29T23:59:25.400Z,39.25
